sensor_id;sensor_type;location;lat;lon;timestamp;pressure;altitude;pressure_sealevel;temperature;humidity
57644;BME280;43474;46.510;6.686;2022-10-16T00:01:58;96483.38;;;13.95;100.00
57644;BME280;43474;46.510;6.686;2022-10-16T00:04:24;96482.19;;;13.81;100.00
57644;BME280;43474;46.510;6.686;2022-10-16T00:06:49;96430.31;;;13.52;100.00
57644;BME280;43474;46.510;6.686;2022-10-16T00:09:15;96491.59;;;13.89;100.00
57644;BME280;43474;46.510;6.686;2022-10-16T00:11:41;96470.16;;;13.74;100.00
57644;BME280;43474;46.510;6.686;2022-10-16T00:14:10;96466.63;;;13.63;100.00
57644;BME280;43474;46.510;6.686;2022-10-16T00:16:37;96489.91;;;13.78;100.00
57644;BME280;43474;46.510;6.686;2022-10-16T00:19:03;96498.22;;;13.86;100.00
57644;BME280;43474;46.510;6.686;2022-10-16T00:21:30;96496.34;;;13.87;100.00
57644;BME280;43474;46.510;6.686;2022-10-16T00:24:02;96493.69;;;13.87;100.00
57644;BME280;43474;46.510;6.686;2022-10-16T00:26:29;96504.06;;;13.83;100.00
57644;BME280;43474;46.510;6.686;2022-10-16T00:28:55;96500.31;;;13.79;100.00
57644;BME280;43474;46.510;6.686;2022-10-16T00:31:22;96503.53;;;13.86;100.00
57644;BME280;43474;46.510;6.686;2022-10-16T00:33:48;96488.28;;;13.77;100.00
57644;BME280;43474;46.510;6.686;2022-10-16T00:36:17;96486.09;;;13.68;100.00
57644;BME280;43474;46.510;6.686;2022-10-16T00:38:43;96494.78;;;13.91;100.00
57644;BME280;43474;46.510;6.686;2022-10-16T00:41:15;96471.13;;;13.94;100.00
57644;BME280;43474;46.510;6.686;2022-10-16T00:43:56;96453.53;;;13.93;100.00
57644;BME280;43474;46.510;6.686;2022-10-16T00:46:26;96491.31;;;14.28;100.00
57644;BME280;43474;46.510;6.686;2022-10-16T00:49:08;96503.53;;;14.18;100.00
57644;BME280;43474;46.510;6.686;2022-10-16T00:51:55;96496.63;;;14.22;100.00
57644;BME280;43474;46.510;6.686;2022-10-16T00:54:26;96480.78;;;14.06;100.00
57644;BME280;43474;46.510;6.686;2022-10-16T00:56:53;96505.53;;;14.01;100.00
57644;BME280;43474;46.510;6.686;2022-10-16T00:59:23;96506.03;;;13.98;100.00
57644;BME280;43474;46.510;6.686;2022-10-16T01:01:50;96487.31;;;13.88;100.00
57644;BME280;43474;46.510;6.686;2022-10-16T01:04:16;96486.75;;;13.86;100.00
57644;BME280;43474;46.510;6.686;2022-10-16T01:18:06;96514.91;;;13.77;100.00
57644;BME280;43474;46.510;6.686;2022-10-16T01:20:37;96506.94;;;13.77;100.00
57644;BME280;43474;46.510;6.686;2022-10-16T01:25:59;96494.97;;;13.79;100.00
57644;BME280;43474;46.510;6.686;2022-10-16T01:28:56;96501.31;;;13.73;100.00
57644;BME280;43474;46.510;6.686;2022-10-16T01:31:26;96508.56;;;13.78;100.00
57644;BME280;43474;46.510;6.686;2022-10-16T01:36:52;96514.19;;;13.86;100.00
57644;BME280;43474;46.510;6.686;2022-10-16T01:39:24;96462.97;;;13.42;100.00
57644;BME280;43474;46.510;6.686;2022-10-16T01:41:56;96485.97;;;13.53;100.00
57644;BME280;43474;46.510;6.686;2022-10-16T01:44:32;96517.38;;;13.83;100.00
57644;BME280;43474;46.510;6.686;2022-10-16T01:46:59;96500.00;;;13.76;100.00
57644;BME280;43474;46.510;6.686;2022-10-16T01:49:30;96453.91;;;13.38;100.00
57644;BME280;43474;46.510;6.686;2022-10-16T01:51:59;96475.81;;;13.50;100.00
57644;BME280;43474;46.510;6.686;2022-10-16T01:54:28;96499.66;;;13.67;100.00
57644;BME280;43474;46.510;6.686;2022-10-16T01:56:58;96516.91;;;13.91;100.00
57644;BME280;43474;46.510;6.686;2022-10-16T01:59:26;96512.63;;;13.90;100.00
57644;BME280;43474;46.510;6.686;2022-10-16T02:01:56;96504.75;;;14.06;100.00
57644;BME280;43474;46.510;6.686;2022-10-16T02:04:34;96505.78;;;14.00;100.00
57644;BME280;43474;46.510;6.686;2022-10-16T02:07:02;96502.66;;;14.08;100.00
57644;BME280;43474;46.510;6.686;2022-10-16T02:09:29;96506.69;;;14.15;100.00
57644;BME280;43474;46.510;6.686;2022-10-16T02:11:56;96493.25;;;14.00;100.00
57644;BME280;43474;46.510;6.686;2022-10-16T02:14:25;96505.38;;;14.18;100.00
57644;BME280;43474;46.510;6.686;2022-10-16T02:16:51;96496.13;;;14.31;100.00
57644;BME280;43474;46.510;6.686;2022-10-16T02:19:18;96450.13;;;14.03;100.00
57644;BME280;43474;46.510;6.686;2022-10-16T02:21:55;96483.06;;;14.34;100.00
57644;BME280;43474;46.510;6.686;2022-10-16T02:24:41;96492.16;;;14.33;100.00
57644;BME280;43474;46.510;6.686;2022-10-16T02:32:46;96486.50;;;14.30;100.00
57644;BME280;43474;46.510;6.686;2022-10-16T02:35:14;96482.72;;;14.20;100.00
57644;BME280;43474;46.510;6.686;2022-10-16T02:37:41;96479.47;;;14.08;100.00
57644;BME280;43474;46.510;6.686;2022-10-16T02:40:08;96491.47;;;14.11;100.00
57644;BME280;43474;46.510;6.686;2022-10-16T02:42:36;96500.78;;;14.08;100.00
57644;BME280;43474;46.510;6.686;2022-10-16T02:45:03;96511.16;;;14.05;100.00
57644;BME280;43474;46.510;6.686;2022-10-16T02:47:28;96498.31;;;14.02;100.00
57644;BME280;43474;46.510;6.686;2022-10-16T02:49:54;96502.03;;;13.95;100.00
57644;BME280;43474;46.510;6.686;2022-10-16T02:52:19;96493.47;;;13.88;100.00
57644;BME280;43474;46.510;6.686;2022-10-16T02:54:45;96496.78;;;14.11;100.00
57644;BME280;43474;46.510;6.686;2022-10-16T02:57:11;96490.63;;;14.05;100.00
57644;BME280;43474;46.510;6.686;2022-10-16T02:59:37;96499.72;;;14.09;100.00
57644;BME280;43474;46.510;6.686;2022-10-16T03:02:03;96505.59;;;14.11;100.00
57644;BME280;43474;46.510;6.686;2022-10-16T03:04:28;96503.16;;;14.05;100.00
57644;BME280;43474;46.510;6.686;2022-10-16T03:06:54;96496.38;;;13.92;100.00
57644;BME280;43474;46.510;6.686;2022-10-16T03:09:19;96505.47;;;13.96;100.00
57644;BME280;43474;46.510;6.686;2022-10-16T03:11:45;96513.44;;;13.91;100.00
57644;BME280;43474;46.510;6.686;2022-10-16T03:14:11;96510.09;;;14.06;100.00
57644;BME280;43474;46.510;6.686;2022-10-16T03:16:36;96513.81;;;14.05;100.00
57644;BME280;43474;46.510;6.686;2022-10-16T03:19:02;96489.09;;;13.77;100.00
57644;BME280;43474;46.510;6.686;2022-10-16T03:21:27;96522.88;;;14.04;100.00
57644;BME280;43474;46.510;6.686;2022-10-16T03:23:53;96508.72;;;13.98;100.00
57644;BME280;43474;46.510;6.686;2022-10-16T03:26:18;96497.00;;;13.99;100.00
57644;BME280;43474;46.510;6.686;2022-10-16T03:28:44;96471.78;;;13.75;100.00
57644;BME280;43474;46.510;6.686;2022-10-16T03:31:09;96521.72;;;13.94;100.00
57644;BME280;43474;46.510;6.686;2022-10-16T03:33:35;96497.81;;;13.67;100.00
57644;BME280;43474;46.510;6.686;2022-10-16T03:36:00;96465.13;;;13.45;100.00
57644;BME280;43474;46.510;6.686;2022-10-16T03:38:26;96515.44;;;13.74;100.00
57644;BME280;43474;46.510;6.686;2022-10-16T03:40:51;96509.34;;;13.78;100.00
57644;BME280;43474;46.510;6.686;2022-10-16T03:43:17;96518.41;;;13.82;100.00
57644;BME280;43474;46.510;6.686;2022-10-16T03:45:43;96477.47;;;13.56;100.00
57644;BME280;43474;46.510;6.686;2022-10-16T03:48:08;96537.19;;;13.92;100.00
57644;BME280;43474;46.510;6.686;2022-10-16T03:50:34;96530.41;;;13.80;100.00
57644;BME280;43474;46.510;6.686;2022-10-16T03:53:00;96535.00;;;13.89;100.00
57644;BME280;43474;46.510;6.686;2022-10-16T03:55:25;96511.31;;;13.88;100.00
57644;BME280;43474;46.510;6.686;2022-10-16T03:57:51;96524.66;;;13.93;100.00
57644;BME280;43474;46.510;6.686;2022-10-16T04:00:16;96533.91;;;13.85;100.00
57644;BME280;43474;46.510;6.686;2022-10-16T04:02:42;96538.66;;;13.78;100.00
57644;BME280;43474;46.510;6.686;2022-10-16T04:05:08;96535.91;;;13.68;100.00
57644;BME280;43474;46.510;6.686;2022-10-16T04:07:34;96491.09;;;13.28;100.00
57644;BME280;43474;46.510;6.686;2022-10-16T04:09:59;96531.34;;;13.36;100.00
57644;BME280;43474;46.510;6.686;2022-10-16T04:12:26;96506.25;;;13.05;100.00
57644;BME280;43474;46.510;6.686;2022-10-16T04:14:52;96531.59;;;13.13;100.00
57644;BME280;43474;46.510;6.686;2022-10-16T04:17:17;96493.94;;;12.77;100.00
57644;BME280;43474;46.510;6.686;2022-10-16T04:19:43;96536.03;;;13.07;100.00
57644;BME280;43474;46.510;6.686;2022-10-16T04:22:08;96548.00;;;13.27;100.00
57644;BME280;43474;46.510;6.686;2022-10-16T04:24:34;96528.88;;;13.30;100.00
57644;BME280;43474;46.510;6.686;2022-10-16T04:27:00;96539.88;;;13.38;100.00
57644;BME280;43474;46.510;6.686;2022-10-16T04:29:25;96508.81;;;13.22;100.00
57644;BME280;43474;46.510;6.686;2022-10-16T04:31:51;96538.38;;;13.48;100.00
57644;BME280;43474;46.510;6.686;2022-10-16T04:34:16;96514.06;;;13.39;100.00
57644;BME280;43474;46.510;6.686;2022-10-16T04:36:42;96532.53;;;13.51;100.00
57644;BME280;43474;46.510;6.686;2022-10-16T04:39:07;96537.69;;;13.62;100.00
57644;BME280;43474;46.510;6.686;2022-10-16T04:41:33;96536.31;;;13.55;100.00
57644;BME280;43474;46.510;6.686;2022-10-16T04:43:59;96507.16;;;13.38;100.00
57644;BME280;43474;46.510;6.686;2022-10-16T04:46:24;96506.22;;;13.27;100.00
57644;BME280;43474;46.510;6.686;2022-10-16T04:48:50;96554.69;;;13.56;100.00
57644;BME280;43474;46.510;6.686;2022-10-16T04:51:16;96555.16;;;13.48;100.00
57644;BME280;43474;46.510;6.686;2022-10-16T04:53:41;96555.16;;;13.48;100.00
57644;BME280;43474;46.510;6.686;2022-10-16T04:56:07;96555.38;;;13.47;100.00
57644;BME280;43474;46.510;6.686;2022-10-16T04:58:32;96558.63;;;13.49;100.00
57644;BME280;43474;46.510;6.686;2022-10-16T05:00:58;96522.13;;;13.22;100.00
57644;BME280;43474;46.510;6.686;2022-10-16T05:03:24;96558.41;;;13.55;100.00
57644;BME280;43474;46.510;6.686;2022-10-16T05:05:50;96552.88;;;13.62;100.00
57644;BME280;43474;46.510;6.686;2022-10-16T05:08:16;96569.03;;;13.82;100.00
57644;BME280;43474;46.510;6.686;2022-10-16T05:10:43;96557.09;;;13.85;100.00
57644;BME280;43474;46.510;6.686;2022-10-16T05:13:09;96521.97;;;13.61;100.00
57644;BME280;43474;46.510;6.686;2022-10-16T05:15:35;96540.72;;;13.71;100.00
57644;BME280;43474;46.510;6.686;2022-10-16T05:18:00;96559.56;;;13.64;100.00
57644;BME280;43474;46.510;6.686;2022-10-16T05:20:26;96549.63;;;13.55;100.00
57644;BME280;43474;46.510;6.686;2022-10-16T05:22:52;96556.28;;;13.57;100.00
57644;BME280;43474;46.510;6.686;2022-10-16T05:25:17;96548.16;;;13.42;100.00
57644;BME280;43474;46.510;6.686;2022-10-16T05:27:43;96544.75;;;13.47;100.00
57644;BME280;43474;46.510;6.686;2022-10-16T05:30:09;96555.97;;;13.49;100.00
57644;BME280;43474;46.510;6.686;2022-10-16T05:32:34;96553.31;;;13.49;100.00
57644;BME280;43474;46.510;6.686;2022-10-16T05:35:00;96545.69;;;13.35;100.00
57644;BME280;43474;46.510;6.686;2022-10-16T05:37:27;96535.13;;;13.18;100.00
57644;BME280;43474;46.510;6.686;2022-10-16T05:39:53;96562.41;;;13.31;100.00
57644;BME280;43474;46.510;6.686;2022-10-16T05:42:18;96551.19;;;13.24;100.00
57644;BME280;43474;46.510;6.686;2022-10-16T05:44:44;96557.34;;;13.29;100.00
57644;BME280;43474;46.510;6.686;2022-10-16T05:47:10;96559.13;;;13.45;100.00
57644;BME280;43474;46.510;6.686;2022-10-16T05:49:36;96563.03;;;13.38;100.00
57644;BME280;43474;46.510;6.686;2022-10-16T05:52:01;96569.97;;;13.39;100.00
57644;BME280;43474;46.510;6.686;2022-10-16T05:54:27;96569.00;;;13.23;100.00
57644;BME280;43474;46.510;6.686;2022-10-16T05:56:52;96558.81;;;13.20;100.00
57644;BME280;43474;46.510;6.686;2022-10-16T05:59:18;96562.72;;;13.12;100.00
57644;BME280;43474;46.510;6.686;2022-10-16T06:01:43;96496.75;;;12.65;100.00
57644;BME280;43474;46.510;6.686;2022-10-16T06:04:09;96568.41;;;13.21;100.00
57644;BME280;43474;46.510;6.686;2022-10-16T06:06:35;96565.75;;;13.21;100.00
57644;BME280;43474;46.510;6.686;2022-10-16T06:09:02;96564.09;;;13.15;100.00
57644;BME280;43474;46.510;6.686;2022-10-16T06:11:29;96575.53;;;13.15;100.00
57644;BME280;43474;46.510;6.686;2022-10-16T06:13:57;96587.78;;;13.16;100.00
57644;BME280;43474;46.510;6.686;2022-10-16T06:16:25;96580.41;;;13.02;100.00
57644;BME280;43474;46.510;6.686;2022-10-16T06:18:52;96570.38;;;12.87;100.00
57644;BME280;43474;46.510;6.686;2022-10-16T06:21:22;96593.84;;;13.12;100.00
57644;BME280;43474;46.510;6.686;2022-10-16T06:23:50;96587.97;;;13.10;100.00
57644;BME280;43474;46.510;6.686;2022-10-16T06:26:18;96577.28;;;13.05;100.00
57644;BME280;43474;46.510;6.686;2022-10-16T06:28:45;96593.94;;;13.39;100.00
57644;BME280;43474;46.510;6.686;2022-10-16T06:31:11;96546.44;;;13.31;100.00
57644;BME280;43474;46.510;6.686;2022-10-16T06:33:38;96592.69;;;13.74;100.00
57644;BME280;43474;46.510;6.686;2022-10-16T06:36:12;96583.31;;;13.71;100.00
57644;BME280;43474;46.510;6.686;2022-10-16T06:38:38;96600.50;;;13.85;100.00
57644;BME280;43474;46.510;6.686;2022-10-16T06:41:06;96603.56;;;13.99;100.00
57644;BME280;43474;46.510;6.686;2022-10-16T06:43:32;96614.56;;;14.08;100.00
57644;BME280;43474;46.510;6.686;2022-10-16T06:45:59;96616.81;;;14.21;100.00
57644;BME280;43474;46.510;6.686;2022-10-16T06:48:26;96621.13;;;14.27;100.00
57644;BME280;43474;46.510;6.686;2022-10-16T06:51:12;96619.47;;;14.21;100.00
57644;BME280;43474;46.510;6.686;2022-10-16T06:53:41;96622.00;;;14.38;100.00
57644;BME280;43474;46.510;6.686;2022-10-16T06:58:37;96607.63;;;14.39;100.00
57644;BME280;43474;46.510;6.686;2022-10-16T07:01:04;96622.72;;;14.60;100.00
57644;BME280;43474;46.510;6.686;2022-10-16T07:03:30;96634.53;;;14.69;100.00
57644;BME280;43474;46.510;6.686;2022-10-16T07:05:56;96637.75;;;14.77;100.00
57644;BME280;43474;46.510;6.686;2022-10-16T07:08:22;96644.25;;;14.91;100.00
57644;BME280;43474;46.510;6.686;2022-10-16T07:10:47;96586.13;;;14.51;100.00
57644;BME280;43474;46.510;6.686;2022-10-16T07:13:13;96652.28;;;14.96;100.00
57644;BME280;43474;46.510;6.686;2022-10-16T07:15:40;96657.63;;;14.96;100.00
57644;BME280;43474;46.510;6.686;2022-10-16T07:18:06;96625.22;;;14.72;100.00
57644;BME280;43474;46.510;6.686;2022-10-16T07:20:32;96664.34;;;15.04;100.00
57644;BME280;43474;46.510;6.686;2022-10-16T07:22:58;96677.44;;;15.10;100.00
57644;BME280;43474;46.510;6.686;2022-10-16T07:25:23;96678.28;;;15.16;100.00
57644;BME280;43474;46.510;6.686;2022-10-16T07:27:49;96675.09;;;15.14;100.00
57644;BME280;43474;46.510;6.686;2022-10-16T07:30:14;96685.03;;;15.29;100.00
57644;BME280;43474;46.510;6.686;2022-10-16T07:32:40;96687.47;;;15.40;100.00
57644;BME280;43474;46.510;6.686;2022-10-16T07:35:06;96646.66;;;15.50;100.00
57644;BME280;43474;46.510;6.686;2022-10-16T07:37:32;96688.31;;;16.75;100.00
57644;BME280;43474;46.510;6.686;2022-10-16T07:39:57;96699.50;;;17.28;100.00
57644;BME280;43474;46.510;6.686;2022-10-16T07:42:23;96677.66;;;18.54;100.00
57644;BME280;43474;46.510;6.686;2022-10-16T07:44:48;96678.34;;;19.28;100.00
57644;BME280;43474;46.510;6.686;2022-10-16T07:47:14;96681.97;;;18.55;100.00
57644;BME280;43474;46.510;6.686;2022-10-16T07:49:39;96647.41;;;18.09;100.00
57644;BME280;43474;46.510;6.686;2022-10-16T07:52:05;96690.34;;;18.04;100.00
57644;BME280;43474;46.510;6.686;2022-10-16T07:54:30;96682.13;;;17.90;100.00
57644;BME280;43474;46.510;6.686;2022-10-16T07:56:56;96687.59;;;18.53;100.00
57644;BME280;43474;46.510;6.686;2022-10-16T07:59:21;96667.25;;;19.34;100.00
57644;BME280;43474;46.510;6.686;2022-10-16T08:01:49;96696.84;;;20.01;100.00
57644;BME280;43474;46.510;6.686;2022-10-16T08:04:14;96717.16;;;19.70;100.00
57644;BME280;43474;46.510;6.686;2022-10-16T08:06:40;96718.69;;;18.94;100.00
57644;BME280;43474;46.510;6.686;2022-10-16T08:09:07;96703.53;;;19.61;95.67
57644;BME280;43474;46.510;6.686;2022-10-16T08:11:33;96730.34;;;19.13;96.68
57644;BME280;43474;46.510;6.686;2022-10-16T08:13:58;96733.34;;;19.65;97.53
57644;BME280;43474;46.510;6.686;2022-10-16T08:16:24;96733.72;;;19.77;93.94
57644;BME280;43474;46.510;6.686;2022-10-16T08:18:50;96726.56;;;19.91;95.83
57644;BME280;43474;46.510;6.686;2022-10-16T08:21:19;96738.56;;;19.51;98.38
57644;BME280;43474;46.510;6.686;2022-10-16T08:23:45;96740.09;;;19.57;99.30
57644;BME280;43474;46.510;6.686;2022-10-16T08:26:11;96732.94;;;20.19;97.01
57644;BME280;43474;46.510;6.686;2022-10-16T08:28:37;96712.75;;;19.98;98.24
57644;BME280;43474;46.510;6.686;2022-10-16T08:31:14;96732.41;;;20.17;100.00
57644;BME280;43474;46.510;6.686;2022-10-16T08:33:42;96723.94;;;19.62;100.00
57644;BME280;43474;46.510;6.686;2022-10-16T08:36:10;96710.56;;;20.19;100.00
57644;BME280;43474;46.510;6.686;2022-10-16T08:38:36;96724.28;;;20.60;99.45
57644;BME280;43474;46.510;6.686;2022-10-16T08:41:29;96732.31;;;20.03;100.00
57644;BME280;43474;46.510;6.686;2022-10-16T08:47:02;96744.16;;;19.30;100.00
57644;BME280;43474;46.510;6.686;2022-10-16T08:49:32;96741.31;;;20.74;95.53
57644;BME280;43474;46.510;6.686;2022-10-16T08:51:58;96740.00;;;22.19;91.25
57644;BME280;43474;46.510;6.686;2022-10-16T08:54:34;96735.84;;;22.94;85.43
57644;BME280;43474;46.510;6.686;2022-10-16T08:57:17;96746.28;;;23.32;78.95
57644;BME280;43474;46.510;6.686;2022-10-16T08:59:44;96721.34;;;23.44;78.10
57644;BME280;43474;46.510;6.686;2022-10-16T09:02:24;96746.00;;;24.39;79.57
57644;BME280;43474;46.510;6.686;2022-10-16T09:07:32;96757.03;;;24.52;74.45
57644;BME280;43474;46.510;6.686;2022-10-16T09:10:23;96711.41;;;24.28;76.55
57644;BME280;43474;46.510;6.686;2022-10-16T09:13:15;96753.81;;;24.93;78.57
57644;BME280;43474;46.510;6.686;2022-10-16T09:16:04;96756.38;;;24.63;73.23
57644;BME280;43474;46.510;6.686;2022-10-16T09:18:51;96725.91;;;24.40;75.69
57644;BME280;43474;46.510;6.686;2022-10-16T09:21:20;96748.56;;;24.44;72.26
57644;BME280;43474;46.510;6.686;2022-10-16T09:23:47;96720.03;;;24.47;76.62
57644;BME280;43474;46.510;6.686;2022-10-16T09:26:16;96726.41;;;24.51;74.99
57644;BME280;43474;46.510;6.686;2022-10-16T09:28:43;96760.47;;;25.30;72.94
57644;BME280;43474;46.510;6.686;2022-10-16T09:31:14;96760.97;;;25.32;69.41
57644;BME280;43474;46.510;6.686;2022-10-16T09:33:42;96726.22;;;24.91;68.33
57644;BME280;43474;46.510;6.686;2022-10-16T09:36:08;96719.19;;;24.90;69.29
57644;BME280;43474;46.510;6.686;2022-10-16T09:38:36;96764.97;;;25.00;69.20
57644;BME280;43474;46.510;6.686;2022-10-16T09:41:14;96745.84;;;24.36;67.38
57644;BME280;43474;46.510;6.686;2022-10-16T09:43:46;96752.88;;;24.54;69.86
57644;BME280;43474;46.510;6.686;2022-10-16T09:46:26;96735.00;;;24.36;70.64
57644;BME280;43474;46.510;6.686;2022-10-16T09:49:01;96731.91;;;24.03;70.64
57644;BME280;43474;46.510;6.686;2022-10-16T09:51:30;96768.91;;;24.24;70.75
57644;BME280;43474;46.510;6.686;2022-10-16T09:54:00;96764.59;;;24.23;72.93
57644;BME280;43474;46.510;6.686;2022-10-16T09:56:31;96771.91;;;24.14;69.27
57644;BME280;43474;46.510;6.686;2022-10-16T09:59:00;96769.16;;;24.06;73.41
57644;BME280;43474;46.510;6.686;2022-10-16T10:01:30;96767.09;;;24.11;70.93
57644;BME280;43474;46.510;6.686;2022-10-16T10:03:57;96730.88;;;23.72;70.92
57644;BME280;43474;46.510;6.686;2022-10-16T10:06:33;96779.38;;;24.09;72.05
57644;BME280;43474;46.510;6.686;2022-10-16T10:09:04;96767.13;;;24.20;70.67
57644;BME280;43474;46.510;6.686;2022-10-16T10:14:19;96763.16;;;24.35;68.27
57644;BME280;43474;46.510;6.686;2022-10-16T10:16:45;96759.28;;;24.01;68.51
57644;BME280;43474;46.510;6.686;2022-10-16T10:19:19;96774.06;;;24.52;65.19
57644;BME280;43474;46.510;6.686;2022-10-16T10:21:45;96770.56;;;24.60;65.78
57644;BME280;43474;46.510;6.686;2022-10-16T10:24:13;96768.16;;;24.76;65.83
57644;BME280;43474;46.510;6.686;2022-10-16T10:26:56;96761.16;;;24.84;70.34
57644;BME280;43474;46.510;6.686;2022-10-16T10:35:22;96727.81;;;24.92;68.31
57644;BME280;43474;46.510;6.686;2022-10-16T10:43:57;96718.09;;;25.08;68.42
57644;BME280;43474;46.510;6.686;2022-10-16T10:46:42;96718.25;;;25.12;67.83
57644;BME280;43474;46.510;6.686;2022-10-16T10:49:34;96725.50;;;25.37;65.54
57644;BME280;43474;46.510;6.686;2022-10-16T10:58:10;96756.97;;;25.21;62.29
57644;BME280;43474;46.510;6.686;2022-10-16T11:01:13;96714.09;;;24.88;61.42
57644;BME280;43474;46.510;6.686;2022-10-16T11:03:56;96755.41;;;25.02;63.49
57644;BME280;43474;46.510;6.686;2022-10-16T11:09:36;96715.69;;;24.89;59.68
57644;BME280;43474;46.510;6.686;2022-10-16T11:12:16;96742.63;;;25.03;58.70
57644;BME280;43474;46.510;6.686;2022-10-16T11:15:02;96741.72;;;24.73;61.85
57644;BME280;43474;46.510;6.686;2022-10-16T11:17:38;96738.66;;;24.92;61.70
57644;BME280;43474;46.510;6.686;2022-10-16T11:20:13;96704.88;;;24.72;57.08
57644;BME280;43474;46.510;6.686;2022-10-16T11:22:46;96712.81;;;24.94;58.47
57644;BME280;43474;46.510;6.686;2022-10-16T11:27:43;96743.75;;;25.11;58.99
57644;BME280;43474;46.510;6.686;2022-10-16T11:30:24;96751.00;;;25.45;58.67
57644;BME280;43474;46.510;6.686;2022-10-16T11:35:39;96712.78;;;25.20;55.89
57644;BME280;43474;46.510;6.686;2022-10-16T11:38:23;96697.06;;;24.79;58.65
57644;BME280;43474;46.510;6.686;2022-10-16T11:40:53;96731.16;;;25.15;60.78
57644;BME280;43474;46.510;6.686;2022-10-16T11:43:32;96730.50;;;25.00;61.69
57644;BME280;43474;46.510;6.686;2022-10-16T11:46:14;96724.41;;;25.21;63.11
57644;BME280;43474;46.510;6.686;2022-10-16T11:48:49;96716.78;;;25.14;63.83
57644;BME280;43474;46.510;6.686;2022-10-16T11:51:39;96705.13;;;25.22;59.82
57644;BME280;43474;46.510;6.686;2022-10-16T11:54:30;96701.72;;;25.43;64.68
57644;BME280;43474;46.510;6.686;2022-10-16T11:57:02;96699.38;;;25.62;58.03
57644;BME280;43474;46.510;6.686;2022-10-16T12:02:38;96702.16;;;25.45;57.65
57644;BME280;43474;46.510;6.686;2022-10-16T12:05:19;96684.88;;;25.58;54.86
57644;BME280;43474;46.510;6.686;2022-10-16T12:07:57;96694.19;;;25.40;57.20
57644;BME280;43474;46.510;6.686;2022-10-16T12:10:29;96685.28;;;25.39;54.43
57644;BME280;43474;46.510;6.686;2022-10-16T12:12:57;96698.66;;;25.44;54.69
57644;BME280;43474;46.510;6.686;2022-10-16T12:15:29;96692.78;;;25.42;59.18
57644;BME280;43474;46.510;6.686;2022-10-16T12:17:55;96697.47;;;25.63;56.54
57644;BME280;43474;46.510;6.686;2022-10-16T12:20:33;96675.72;;;25.33;56.91
57644;BME280;43474;46.510;6.686;2022-10-16T12:23:05;96660.66;;;25.44;56.20
57644;BME280;43474;46.510;6.686;2022-10-16T12:25:32;96669.50;;;24.51;57.97
57644;BME280;43474;46.510;6.686;2022-10-16T12:28:04;96674.31;;;24.37;58.17
57644;BME280;43474;46.510;6.686;2022-10-16T12:30:34;96657.56;;;24.43;54.66
57644;BME280;43474;46.510;6.686;2022-10-16T12:33:03;96645.09;;;24.60;56.45
57644;BME280;43474;46.510;6.686;2022-10-16T12:35:33;96680.00;;;24.70;56.73
57644;BME280;43474;46.510;6.686;2022-10-16T12:38:19;96680.66;;;24.67;56.60
57644;BME280;43474;46.510;6.686;2022-10-16T12:40:53;96688.13;;;24.70;55.54
57644;BME280;43474;46.510;6.686;2022-10-16T12:45:45;96679.81;;;24.92;56.36
57644;BME280;43474;46.510;6.686;2022-10-16T12:48:20;96654.97;;;24.64;55.06
57644;BME280;43474;46.510;6.686;2022-10-16T12:50:47;96650.56;;;24.42;58.83
57644;BME280;43474;46.510;6.686;2022-10-16T12:53:24;96678.53;;;24.90;60.74
57644;BME280;43474;46.510;6.686;2022-10-16T13:18:01;96673.09;;;24.98;56.12
57644;BME280;43474;46.510;6.686;2022-10-16T13:21:07;96671.47;;;25.06;59.22
57644;BME280;43474;46.510;6.686;2022-10-16T13:24:02;96631.84;;;24.75;57.08
57644;BME280;43474;46.510;6.686;2022-10-16T13:28:59;96660.88;;;25.31;58.92
57644;BME280;43474;46.510;6.686;2022-10-16T13:31:26;96662.81;;;25.30;55.49
57644;BME280;43474;46.510;6.686;2022-10-16T13:33:56;96651.69;;;25.14;57.78
57644;BME280;43474;46.510;6.686;2022-10-16T13:36:35;96660.34;;;24.90;55.67
57644;BME280;43474;46.510;6.686;2022-10-16T13:39:27;96657.97;;;24.80;56.99
57644;BME280;43474;46.510;6.686;2022-10-16T13:44:35;96656.22;;;24.93;55.97
57644;BME280;43474;46.510;6.686;2022-10-16T13:47:02;96659.72;;;24.76;58.68
57644;BME280;43474;46.510;6.686;2022-10-16T13:49:28;96639.22;;;24.58;57.69
57644;BME280;43474;46.510;6.686;2022-10-16T13:51:55;96599.09;;;24.42;58.05
57644;BME280;43474;46.510;6.686;2022-10-16T13:54:22;96660.84;;;24.84;59.57
57644;BME280;43474;46.510;6.686;2022-10-16T13:56:47;96657.50;;;24.78;58.78
57644;BME280;43474;46.510;6.686;2022-10-16T13:59:32;96638.59;;;24.52;56.14
57644;BME280;43474;46.510;6.686;2022-10-16T14:01:58;96623.59;;;24.55;57.46
57644;BME280;43474;46.510;6.686;2022-10-16T14:04:31;96610.22;;;24.41;59.50
57644;BME280;43474;46.510;6.686;2022-10-16T14:06:58;96653.72;;;24.62;58.28
57644;BME280;43474;46.510;6.686;2022-10-16T14:09:26;96664.84;;;24.69;59.38
57644;BME280;43474;46.510;6.686;2022-10-16T14:11:59;96658.16;;;24.66;60.95
57644;BME280;43474;46.510;6.686;2022-10-16T14:14:27;96662.78;;;24.74;57.61
57644;BME280;43474;46.510;6.686;2022-10-16T14:16:56;96662.16;;;24.69;59.53
57644;BME280;43474;46.510;6.686;2022-10-16T14:19:25;96659.16;;;24.53;63.16
57644;BME280;43474;46.510;6.686;2022-10-16T14:21:52;96648.94;;;24.41;58.35
57644;BME280;43474;46.510;6.686;2022-10-16T14:24:31;96661.69;;;24.41;58.34
57644;BME280;43474;46.510;6.686;2022-10-16T14:26:58;96649.44;;;24.52;58.22
57644;BME280;43474;46.510;6.686;2022-10-16T14:29:25;96638.59;;;24.43;61.23
57644;BME280;43474;46.510;6.686;2022-10-16T14:31:57;96634.59;;;24.32;61.98
57644;BME280;43474;46.510;6.686;2022-10-16T14:36:50;96634.25;;;24.16;56.63
57644;BME280;43474;46.510;6.686;2022-10-16T14:39:20;96635.09;;;24.17;59.42
57644;BME280;43474;46.510;6.686;2022-10-16T14:41:48;96658.19;;;24.32;63.55
57644;BME280;43474;46.510;6.686;2022-10-16T14:44:17;96638.72;;;24.21;62.83